sensor_id;sensor_type;location;lat;lon;timestamp;P1;durP1;ratioP1;P2;durP2;ratioP2
38797;SDS011;24546;52.240;16.826;2022-11-04T00:02:16;20.10;;;12.63;;
38797;SDS011;24546;52.240;16.826;2022-11-04T00:07:17;21.40;;;13.43;;
38797;SDS011;24546;52.240;16.826;2022-11-04T00:12:36;25.50;;;14.70;;
38797;SDS011;24546;52.240;16.826;2022-11-04T00:17:37;20.48;;;13.18;;
38797;SDS011;24546;52.240;16.826;2022-11-04T00:22:39;26.42;;;14.32;;
38797;SDS011;24546;52.240;16.826;2022-11-04T00:33:29;28.45;;;15.63;;
38797;SDS011;24546;52.240;16.826;2022-11-04T00:38:29;29.67;;;15.70;;
38797;SDS011;24546;52.240;16.826;2022-11-04T00:43:30;24.08;;;14.98;;
38797;SDS011;24546;52.240;16.826;2022-11-04T00:48:31;26.55;;;14.75;;
38797;SDS011;24546;52.240;16.826;2022-11-04T00:53:32;22.45;;;14.20;;
38797;SDS011;24546;52.240;16.826;2022-11-04T00:58:33;26.48;;;14.32;;
38797;SDS011;24546;52.240;16.826;2022-11-04T01:03:33;29.73;;;17.42;;
38797;SDS011;24546;52.240;16.826;2022-11-04T01:08:34;30.15;;;16.02;;
38797;SDS011;24546;52.240;16.826;2022-11-04T01:13:36;27.40;;;14.50;;
38797;SDS011;24546;52.240;16.826;2022-11-04T01:18:40;24.92;;;14.63;;
38797;SDS011;24546;52.240;16.826;2022-11-04T01:23:41;28.38;;;16.85;;
38797;SDS011;24546;52.240;16.826;2022-11-04T01:28:43;26.00;;;14.63;;
38797;SDS011;24546;52.240;16.826;2022-11-04T01:33:45;28.52;;;16.20;;
38797;SDS011;24546;52.240;16.826;2022-11-04T01:38:47;27.83;;;15.07;;
38797;SDS011;24546;52.240;16.826;2022-11-04T01:43:50;29.88;;;17.80;;
38797;SDS011;24546;52.240;16.826;2022-11-04T01:49:20;32.88;;;16.33;;
38797;SDS011;24546;52.240;16.826;2022-11-04T01:54:25;27.58;;;15.88;;
38797;SDS011;24546;52.240;16.826;2022-11-04T01:59:29;48.75;;;28.02;;
38797;SDS011;24546;52.240;16.826;2022-11-04T02:04:34;51.72;;;29.42;;
38797;SDS011;24546;52.240;16.826;2022-11-04T02:09:37;40.10;;;25.35;;
38797;SDS011;24546;52.240;16.826;2022-11-04T02:14:39;33.97;;;20.67;;
38797;SDS011;24546;52.240;16.826;2022-11-04T02:19:58;30.55;;;18.08;;
38797;SDS011;24546;52.240;16.826;2022-11-04T02:25:24;28.77;;;16.80;;
38797;SDS011;24546;52.240;16.826;2022-11-04T02:30:27;27.63;;;15.20;;
38797;SDS011;24546;52.240;16.826;2022-11-04T02:35:41;24.30;;;15.30;;
38797;SDS011;24546;52.240;16.826;2022-11-04T02:41:12;22.60;;;14.57;;
38797;SDS011;24546;52.240;16.826;2022-11-04T02:46:22;25.63;;;15.07;;
38797;SDS011;24546;52.240;16.826;2022-11-04T02:51:28;28.75;;;16.15;;
38797;SDS011;24546;52.240;16.826;2022-11-04T02:56:34;26.63;;;16.58;;
38797;SDS011;24546;52.240;16.826;2022-11-04T03:01:40;23.95;;;14.38;;
38797;SDS011;24546;52.240;16.826;2022-11-04T03:06:42;26.15;;;16.10;;
38797;SDS011;24546;52.240;16.826;2022-11-04T03:11:47;28.13;;;15.60;;
38797;SDS011;24546;52.240;16.826;2022-11-04T03:16:53;27.35;;;14.75;;
38797;SDS011;24546;52.240;16.826;2022-11-04T03:22:07;24.90;;;14.27;;
38797;SDS011;24546;52.240;16.826;2022-11-04T03:37:35;28.02;;;15.45;;
38797;SDS011;24546;52.240;16.826;2022-11-04T03:42:37;23.02;;;13.90;;
38797;SDS011;24546;52.240;16.826;2022-11-04T03:47:42;22.40;;;13.52;;
38797;SDS011;24546;52.240;16.826;2022-11-04T03:52:43;27.15;;;15.40;;
38797;SDS011;24546;52.240;16.826;2022-11-04T03:57:59;25.33;;;16.55;;
38797;SDS011;24546;52.240;16.826;2022-11-04T04:03:28;23.13;;;14.52;;
38797;SDS011;24546;52.240;16.826;2022-11-04T04:08:40;22.85;;;14.90;;
38797;SDS011;24546;52.240;16.826;2022-11-04T04:13:56;21.77;;;14.57;;
38797;SDS011;24546;52.240;16.826;2022-11-04T04:19:11;24.75;;;15.43;;
38797;SDS011;24546;52.240;16.826;2022-11-04T04:24:14;22.42;;;14.32;;
38797;SDS011;24546;52.240;16.826;2022-11-04T04:29:37;21.85;;;13.93;;
38797;SDS011;24546;52.240;16.826;2022-11-04T04:34:39;24.33;;;15.30;;
38797;SDS011;24546;52.240;16.826;2022-11-04T04:39:42;25.38;;;15.80;;
38797;SDS011;24546;52.240;16.826;2022-11-04T04:45:05;21.60;;;14.70;;
38797;SDS011;24546;52.240;16.826;2022-11-04T04:50:07;27.95;;;15.63;;
38797;SDS011;24546;52.240;16.826;2022-11-04T04:55:09;28.05;;;17.17;;
38797;SDS011;24546;52.240;16.826;2022-11-04T05:00:13;25.63;;;15.88;;
38797;SDS011;24546;52.240;16.826;2022-11-04T05:05:16;32.20;;;18.73;;
38797;SDS011;24546;52.240;16.826;2022-11-04T05:10:17;27.48;;;18.20;;
38797;SDS011;24546;52.240;16.826;2022-11-04T05:15:18;29.27;;;17.92;;
38797;SDS011;24546;52.240;16.826;2022-11-04T05:20:19;31.80;;;18.52;;
38797;SDS011;24546;52.240;16.826;2022-11-04T05:25:20;31.70;;;17.83;;
38797;SDS011;24546;52.240;16.826;2022-11-04T05:30:21;31.10;;;17.92;;
38797;SDS011;24546;52.240;16.826;2022-11-04T05:35:22;34.33;;;19.15;;
38797;SDS011;24546;52.240;16.826;2022-11-04T05:40:23;31.55;;;19.70;;
38797;SDS011;24546;52.240;16.826;2022-11-04T05:51:50;33.08;;;19.23;;
38797;SDS011;24546;52.240;16.826;2022-11-04T05:56:51;37.78;;;21.20;;
38797;SDS011;24546;52.240;16.826;2022-11-04T06:01:52;35.92;;;19.60;;
38797;SDS011;24546;52.240;16.826;2022-11-04T06:06:53;31.77;;;19.75;;
38797;SDS011;24546;52.240;16.826;2022-11-04T06:11:54;31.67;;;19.83;;
38797;SDS011;24546;52.240;16.826;2022-11-04T06:16:56;31.90;;;21.27;;
38797;SDS011;24546;52.240;16.826;2022-11-04T06:21:57;33.53;;;20.50;;
38797;SDS011;24546;52.240;16.826;2022-11-04T06:26:58;34.03;;;19.35;;
38797;SDS011;24546;52.240;16.826;2022-11-04T06:31:59;28.90;;;17.60;;
38797;SDS011;24546;52.240;16.826;2022-11-04T06:37:00;32.60;;;19.60;;
38797;SDS011;24546;52.240;16.826;2022-11-04T06:42:02;32.10;;;19.77;;
38797;SDS011;24546;52.240;16.826;2022-11-04T06:47:03;32.90;;;21.60;;
38797;SDS011;24546;52.240;16.826;2022-11-04T06:52:04;30.80;;;20.13;;
38797;SDS011;24546;52.240;16.826;2022-11-04T06:57:08;35.10;;;22.65;;
38797;SDS011;24546;52.240;16.826;2022-11-04T07:02:11;35.25;;;21.17;;
38797;SDS011;24546;52.240;16.826;2022-11-04T07:07:12;31.88;;;19.35;;
38797;SDS011;24546;52.240;16.826;2022-11-04T07:12:13;32.20;;;19.02;;
38797;SDS011;24546;52.240;16.826;2022-11-04T07:17:14;30.67;;;19.63;;
38797;SDS011;24546;52.240;16.826;2022-11-04T07:22:15;30.73;;;19.25;;
38797;SDS011;24546;52.240;16.826;2022-11-04T07:27:17;37.17;;;22.38;;
38797;SDS011;24546;52.240;16.826;2022-11-04T07:32:20;36.13;;;20.48;;
38797;SDS011;24546;52.240;16.826;2022-11-04T07:37:21;28.80;;;17.98;;
38797;SDS011;24546;52.240;16.826;2022-11-04T07:42:22;32.45;;;19.08;;
38797;SDS011;24546;52.240;16.826;2022-11-04T07:47:28;31.50;;;18.15;;
38797;SDS011;24546;52.240;16.826;2022-11-04T07:52:30;25.65;;;16.85;;
38797;SDS011;24546;52.240;16.826;2022-11-04T07:57:31;29.02;;;17.35;;
38797;SDS011;24546;52.240;16.826;2022-11-04T08:02:32;26.00;;;16.55;;
38797;SDS011;24546;52.240;16.826;2022-11-04T08:07:33;31.55;;;17.88;;
38797;SDS011;24546;52.240;16.826;2022-11-04T08:12:34;28.90;;;17.38;;
38797;SDS011;24546;52.240;16.826;2022-11-04T08:17:37;28.23;;;18.60;;
38797;SDS011;24546;52.240;16.826;2022-11-04T08:22:38;27.80;;;15.90;;
38797;SDS011;24546;52.240;16.826;2022-11-04T08:27:39;25.27;;;15.85;;
38797;SDS011;24546;52.240;16.826;2022-11-04T08:32:40;24.85;;;15.52;;
38797;SDS011;24546;52.240;16.826;2022-11-04T08:37:41;26.67;;;17.50;;
38797;SDS011;24546;52.240;16.826;2022-11-04T08:42:42;26.75;;;17.30;;
38797;SDS011;24546;52.240;16.826;2022-11-04T08:47:43;23.25;;;15.88;;
38797;SDS011;24546;52.240;16.826;2022-11-04T08:52:44;22.92;;;14.60;;
38797;SDS011;24546;52.240;16.826;2022-11-04T08:57:44;24.98;;;16.35;;
38797;SDS011;24546;52.240;16.826;2022-11-04T09:02:45;23.55;;;15.43;;
38797;SDS011;24546;52.240;16.826;2022-11-04T09:07:46;28.65;;;17.05;;
38797;SDS011;24546;52.240;16.826;2022-11-04T09:12:47;38.17;;;24.90;;
38797;SDS011;24546;52.240;16.826;2022-11-04T09:17:48;23.15;;;14.98;;
38797;SDS011;24546;52.240;16.826;2022-11-04T09:22:49;24.75;;;15.77;;
38797;SDS011;24546;52.240;16.826;2022-11-04T09:27:52;24.08;;;15.85;;
38797;SDS011;24546;52.240;16.826;2022-11-04T09:32:53;28.48;;;16.05;;
38797;SDS011;24546;52.240;16.826;2022-11-04T09:37:54;26.17;;;16.23;;
38797;SDS011;24546;52.240;16.826;2022-11-04T09:43:13;22.08;;;15.85;;
38797;SDS011;24546;52.240;16.826;2022-11-04T09:48:38;22.33;;;15.80;;
38797;SDS011;24546;52.240;16.826;2022-11-04T09:53:51;24.63;;;15.70;;
38797;SDS011;24546;52.240;16.826;2022-11-04T09:58:57;25.92;;;16.80;;
38797;SDS011;24546;52.240;16.826;2022-11-04T10:04:19;21.45;;;15.07;;
38797;SDS011;24546;52.240;16.826;2022-11-04T10:14:55;22.98;;;15.95;;
38797;SDS011;24546;52.240;16.826;2022-11-04T10:20:18;26.05;;;17.30;;
38797;SDS011;24546;52.240;16.826;2022-11-04T10:30:46;25.98;;;16.42;;
38797;SDS011;24546;52.240;16.826;2022-11-04T10:35:57;27.95;;;16.90;;
38797;SDS011;24546;52.240;16.826;2022-11-04T10:41:14;25.90;;;16.15;;
38797;SDS011;24546;52.240;16.826;2022-11-04T10:51:59;22.50;;;16.00;;
38797;SDS011;24546;52.240;16.826;2022-11-04T10:57:00;25.58;;;16.52;;
38797;SDS011;24546;52.240;16.826;2022-11-04T11:02:02;20.52;;;14.25;;
38797;SDS011;24546;52.240;16.826;2022-11-04T11:07:04;23.15;;;14.70;;
38797;SDS011;24546;52.240;16.826;2022-11-04T11:22:40;21.52;;;14.73;;
38797;SDS011;24546;52.240;16.826;2022-11-04T11:27:49;22.05;;;15.25;;
38797;SDS011;24546;52.240;16.826;2022-11-04T11:32:54;25.77;;;14.77;;
38797;SDS011;24546;52.240;16.826;2022-11-04T11:37:58;23.75;;;15.45;;
38797;SDS011;24546;52.240;16.826;2022-11-04T11:43:03;25.05;;;14.93;;
38797;SDS011;24546;52.240;16.826;2022-11-04T11:48:17;24.52;;;14.65;;
38797;SDS011;24546;52.240;16.826;2022-11-04T11:53:32;23.00;;;15.13;;
38797;SDS011;24546;52.240;16.826;2022-11-04T11:58:40;22.85;;;13.88;;
38797;SDS011;24546;52.240;16.826;2022-11-04T12:03:46;23.02;;;15.02;;
38797;SDS011;24546;52.240;16.826;2022-11-04T12:14:13;21.05;;;14.43;;
38797;SDS011;24546;52.240;16.826;2022-11-04T12:30:36;24.27;;;15.27;;
38797;SDS011;24546;52.240;16.826;2022-11-04T12:46:25;22.38;;;15.00;;
38797;SDS011;24546;52.240;16.826;2022-11-04T12:57:13;22.30;;;14.90;;
38797;SDS011;24546;52.240;16.826;2022-11-04T13:08:20;22.05;;;14.90;;
38797;SDS011;24546;52.240;16.826;2022-11-04T13:13:41;25.80;;;15.68;;
38797;SDS011;24546;52.240;16.826;2022-11-04T13:18:43;25.85;;;16.33;;
38797;SDS011;24546;52.240;16.826;2022-11-04T13:29:03;23.85;;;15.30;;
38797;SDS011;24546;52.240;16.826;2022-11-04T13:34:13;27.15;;;17.40;;
38797;SDS011;24546;52.240;16.826;2022-11-04T13:39:38;23.35;;;16.90;;
38797;SDS011;24546;52.240;16.826;2022-11-04T13:44:49;26.52;;;17.70;;
38797;SDS011;24546;52.240;16.826;2022-11-04T13:49:56;25.80;;;16.92;;
38797;SDS011;24546;52.240;16.826;2022-11-04T13:55:06;24.58;;;16.67;;
38797;SDS011;24546;52.240;16.826;2022-11-04T14:00:22;29.73;;;17.77;;
38797;SDS011;24546;52.240;16.826;2022-11-04T14:16:03;30.52;;;18.60;;
38797;SDS011;24546;52.240;16.826;2022-11-04T14:26:39;28.75;;;20.30;;
38797;SDS011;24546;52.240;16.826;2022-11-04T14:31:47;31.05;;;19.67;;
38797;SDS011;24546;52.240;16.826;2022-11-04T14:36:57;39.20;;;24.60;;
38797;SDS011;24546;52.240;16.826;2022-11-04T14:42:23;28.27;;;19.70;;
38797;SDS011;24546;52.240;16.826;2022-11-04T14:47:53;31.05;;;19.85;;
38797;SDS011;24546;52.240;16.826;2022-11-04T14:53:13;40.42;;;23.92;;
38797;SDS011;24546;52.240;16.826;2022-11-04T14:58:34;37.20;;;24.05;;
38797;SDS011;24546;52.240;16.826;2022-11-04T15:03:36;33.88;;;22.33;;
38797;SDS011;24546;52.240;16.826;2022-11-04T15:13:47;36.47;;;24.27;;
38797;SDS011;24546;52.240;16.826;2022-11-04T15:18:50;32.63;;;20.48;;
38797;SDS011;24546;52.240;16.826;2022-11-04T15:23:59;37.13;;;22.83;;
38797;SDS011;24546;52.240;16.826;2022-11-04T15:29:02;35.15;;;23.25;;
38797;SDS011;24546;52.240;16.826;2022-11-04T15:34:09;45.38;;;26.02;;
38797;SDS011;24546;52.240;16.826;2022-11-04T15:39:16;78.72;;;34.17;;
38797;SDS011;24546;52.240;16.826;2022-11-04T15:44:52;43.20;;;28.00;;
38797;SDS011;24546;52.240;16.826;2022-11-04T15:55:18;39.15;;;24.50;;
38797;SDS011;24546;52.240;16.826;2022-11-04T16:00:25;49.20;;;30.80;;
38797;SDS011;24546;52.240;16.826;2022-11-04T16:05:28;45.42;;;30.65;;
38797;SDS011;24546;52.240;16.826;2022-11-04T16:10:35;57.40;;;37.00;;
38797;SDS011;24546;52.240;16.826;2022-11-04T16:15:41;58.88;;;34.78;;
38797;SDS011;24546;52.240;16.826;2022-11-04T16:21:01;49.85;;;32.13;;
38797;SDS011;24546;52.240;16.826;2022-11-04T16:26:07;48.22;;;33.60;;
38797;SDS011;24546;52.240;16.826;2022-11-04T16:36:21;68.97;;;45.60;;
38797;SDS011;24546;52.240;16.826;2022-11-04T16:41:27;71.57;;;46.78;;
38797;SDS011;24546;52.240;16.826;2022-11-04T16:46:29;56.25;;;36.53;;
38797;SDS011;24546;52.240;16.826;2022-11-04T16:51:32;54.25;;;32.33;;
38797;SDS011;24546;52.240;16.826;2022-11-04T16:56:34;55.88;;;33.90;;
38797;SDS011;24546;52.240;16.826;2022-11-04T17:01:37;61.85;;;36.55;;
38797;SDS011;24546;52.240;16.826;2022-11-04T17:06:39;52.58;;;33.75;;
38797;SDS011;24546;52.240;16.826;2022-11-04T17:11:40;56.35;;;35.80;;
38797;SDS011;24546;52.240;16.826;2022-11-04T17:16:42;72.40;;;43.20;;
38797;SDS011;24546;52.240;16.826;2022-11-04T17:21:43;78.90;;;46.95;;
38797;SDS011;24546;52.240;16.826;2022-11-04T17:26:47;84.05;;;51.33;;
38797;SDS011;24546;52.240;16.826;2022-11-04T17:31:48;80.68;;;50.53;;
38797;SDS011;24546;52.240;16.826;2022-11-04T17:36:49;79.75;;;50.65;;
38797;SDS011;24546;52.240;16.826;2022-11-04T17:41:54;71.70;;;46.65;;
38797;SDS011;24546;52.240;16.826;2022-11-04T17:47:13;56.55;;;37.17;;
38797;SDS011;24546;52.240;16.826;2022-11-04T17:52:14;109.35;;;65.07;;
38797;SDS011;24546;52.240;16.826;2022-11-04T17:57:15;45.53;;;29.48;;
38797;SDS011;24546;52.240;16.826;2022-11-04T18:02:16;52.70;;;32.72;;
38797;SDS011;24546;52.240;16.826;2022-11-04T18:07:17;51.50;;;31.33;;
38797;SDS011;24546;52.240;16.826;2022-11-04T18:12:19;48.85;;;31.13;;
38797;SDS011;24546;52.240;16.826;2022-11-04T18:17:39;54.30;;;35.42;;
38797;SDS011;24546;52.240;16.826;2022-11-04T18:22:42;55.15;;;34.88;;
38797;SDS011;24546;52.240;16.826;2022-11-04T18:27:43;45.58;;;29.35;;
38797;SDS011;24546;52.240;16.826;2022-11-04T18:32:44;42.83;;;28.63;;
38797;SDS011;24546;52.240;16.826;2022-11-04T18:37:45;54.50;;;33.55;;
38797;SDS011;24546;52.240;16.826;2022-11-04T18:42:47;70.38;;;43.65;;
38797;SDS011;24546;52.240;16.826;2022-11-04T18:47:48;63.92;;;40.72;;
38797;SDS011;24546;52.240;16.826;2022-11-04T18:52:52;66.22;;;37.10;;
38797;SDS011;24546;52.240;16.826;2022-11-04T18:57:54;49.25;;;31.75;;
38797;SDS011;24546;52.240;16.826;2022-11-04T19:02:55;45.90;;;29.23;;
38797;SDS011;24546;52.240;16.826;2022-11-04T19:07:56;48.65;;;31.60;;
38797;SDS011;24546;52.240;16.826;2022-11-04T19:12:57;55.95;;;35.22;;
38797;SDS011;24546;52.240;16.826;2022-11-04T19:18:17;54.05;;;33.15;;
38797;SDS011;24546;52.240;16.826;2022-11-04T19:23:18;50.15;;;30.45;;
38797;SDS011;24546;52.240;16.826;2022-11-04T19:28:19;47.03;;;28.90;;
38797;SDS011;24546;52.240;16.826;2022-11-04T19:33:20;46.92;;;29.55;;
38797;SDS011;24546;52.240;16.826;2022-11-04T19:38:22;73.53;;;49.50;;
38797;SDS011;24546;52.240;16.826;2022-11-04T19:43:26;51.25;;;29.98;;
38797;SDS011;24546;52.240;16.826;2022-11-04T19:48:27;54.55;;;33.28;;
38797;SDS011;24546;52.240;16.826;2022-11-04T19:53:29;59.25;;;33.22;;
38797;SDS011;24546;52.240;16.826;2022-11-04T19:58:31;53.60;;;31.60;;
38797;SDS011;24546;52.240;16.826;2022-11-04T20:03:32;51.92;;;30.80;;
38797;SDS011;24546;52.240;16.826;2022-11-04T20:08:34;47.20;;;29.33;;
38797;SDS011;24546;52.240;16.826;2022-11-04T20:13:47;51.22;;;31.40;;
38797;SDS011;24546;52.240;16.826;2022-11-04T20:18:55;57.88;;;33.53;;
38797;SDS011;24546;52.240;16.826;2022-11-04T20:24:03;52.10;;;30.55;;
38797;SDS011;24546;52.240;16.826;2022-11-04T20:29:10;50.10;;;29.70;;
38797;SDS011;24546;52.240;16.826;2022-11-04T20:34:12;56.45;;;33.35;;
38797;SDS011;24546;52.240;16.826;2022-11-04T20:39:15;67.20;;;37.33;;
38797;SDS011;24546;52.240;16.826;2022-11-04T20:44:17;76.93;;;42.13;;
38797;SDS011;24546;52.240;16.826;2022-11-04T20:49:18;57.42;;;34.20;;
38797;SDS011;24546;52.240;16.826;2022-11-04T20:54:19;57.28;;;34.30;;
38797;SDS011;24546;52.240;16.826;2022-11-04T20:59:23;56.75;;;33.75;;
38797;SDS011;24546;52.240;16.826;2022-11-04T21:04:25;63.53;;;35.17;;
38797;SDS011;24546;52.240;16.826;2022-11-04T21:09:26;56.28;;;33.90;;
38797;SDS011;24546;52.240;16.826;2022-11-04T21:14:29;58.63;;;33.97;;
38797;SDS011;24546;52.240;16.826;2022-11-04T21:19:34;55.10;;;32.67;;
38797;SDS011;24546;52.240;16.826;2022-11-04T21:24:37;62.72;;;36.28;;
38797;SDS011;24546;52.240;16.826;2022-11-04T21:29:38;60.53;;;36.83;;
38797;SDS011;24546;52.240;16.826;2022-11-04T21:34:40;59.78;;;36.63;;
38797;SDS011;24546;52.240;16.826;2022-11-04T21:39:42;57.97;;;35.10;;
38797;SDS011;24546;52.240;16.826;2022-11-04T21:44:43;62.97;;;36.95;;
38797;SDS011;24546;52.240;16.826;2022-11-04T21:49:46;61.25;;;35.88;;
38797;SDS011;24546;52.240;16.826;2022-11-04T21:54:47;61.22;;;36.05;;
38797;SDS011;24546;52.240;16.826;2022-11-04T21:59:48;60.97;;;37.65;;
38797;SDS011;24546;52.240;16.826;2022-11-04T22:04:49;63.30;;;36.45;;
38797;SDS011;24546;52.240;16.826;2022-11-04T22:09:50;63.92;;;39.38;;
38797;SDS011;24546;52.240;16.826;2022-11-04T22:14:52;60.95;;;36.70;;
38797;SDS011;24546;52.240;16.826;2022-11-04T22:19:53;65.20;;;37.95;;
38797;SDS011;24546;52.240;16.826;2022-11-04T22:24:54;68.63;;;39.00;;
38797;SDS011;24546;52.240;16.826;2022-11-04T22:30:06;64.95;;;38.28;;
38797;SDS011;24546;52.240;16.826;2022-11-04T22:35:08;64.63;;;37.97;;
38797;SDS011;24546;52.240;16.826;2022-11-04T22:40:09;58.58;;;34.95;;
38797;SDS011;24546;52.240;16.826;2022-11-04T22:45:11;53.22;;;34.25;;
38797;SDS011;24546;52.240;16.826;2022-11-04T22:50:11;50.08;;;32.10;;
38797;SDS011;24546;52.240;16.826;2022-11-04T22:55:13;58.88;;;35.25;;
38797;SDS011;24546;52.240;16.826;2022-11-04T23:00:14;55.03;;;34.45;;
38797;SDS011;24546;52.240;16.826;2022-11-04T23:05:15;60.92;;;37.72;;
38797;SDS011;24546;52.240;16.826;2022-11-04T23:10:17;52.92;;;33.72;;
38797;SDS011;24546;52.240;16.826;2022-11-04T23:15:37;54.17;;;30.98;;
38797;SDS011;24546;52.240;16.826;2022-11-04T23:20:57;55.47;;;34.17;;
38797;SDS011;24546;52.240;16.826;2022-11-04T23:26:20;57.28;;;33.67;;
38797;SDS011;24546;52.240;16.826;2022-11-04T23:31:22;55.13;;;32.75;;
38797;SDS011;24546;52.240;16.826;2022-11-04T23:36:23;53.60;;;31.83;;
38797;SDS011;24546;52.240;16.826;2022-11-04T23:41:42;59.85;;;33.92;;
38797;SDS011;24546;52.240;16.826;2022-11-04T23:47:02;59.88;;;34.78;;
38797;SDS011;24546;52.240;16.826;2022-11-04T23:52:21;54.90;;;32.22;;
38797;SDS011;24546;52.240;16.826;2022-11-04T23:57:40;58.50;;;33.58;;
